sensor_id;sensor_type;location;lat;lon;timestamp;temperature;humidity
10083;DHT22;5080;48.528;8.078;2024-02-21T00:00:48;7.10;99.90
10083;DHT22;5080;48.528;8.078;2024-02-21T00:03:15;7.10;99.90
10083;DHT22;5080;48.528;8.078;2024-02-21T00:05:45;7.20;99.90
10083;DHT22;5080;48.528;8.078;2024-02-21T00:08:13;7.20;99.90
10083;DHT22;5080;48.528;8.078;2024-02-21T00:10:39;7.20;99.90
10083;DHT22;5080;48.528;8.078;2024-02-21T00:13:06;7.30;99.90
10083;DHT22;5080;48.528;8.078;2024-02-21T00:15:33;7.30;99.90
10083;DHT22;5080;48.528;8.078;2024-02-21T00:18:00;7.40;99.90
10083;DHT22;5080;48.528;8.078;2024-02-21T00:20:26;7.40;99.90
10083;DHT22;5080;48.528;8.078;2024-02-21T00:22:53;7.40;99.90
10083;DHT22;5080;48.528;8.078;2024-02-21T00:25:21;7.40;99.90
10083;DHT22;5080;48.528;8.078;2024-02-21T00:27:48;7.40;99.90
10083;DHT22;5080;48.528;8.078;2024-02-21T00:30:15;7.40;99.90
10083;DHT22;5080;48.528;8.078;2024-02-21T00:32:41;7.40;99.90
10083;DHT22;5080;48.528;8.078;2024-02-21T00:35:08;7.40;99.90
10083;DHT22;5080;48.528;8.078;2024-02-21T00:37:35;7.40;99.90
10083;DHT22;5080;48.528;8.078;2024-02-21T00:40:02;7.40;99.90
10083;DHT22;5080;48.528;8.078;2024-02-21T00:42:30;7.40;99.90
10083;DHT22;5080;48.528;8.078;2024-02-21T00:44:57;7.40;99.90
10083;DHT22;5080;48.528;8.078;2024-02-21T00:47:23;7.40;99.90
10083;DHT22;5080;48.528;8.078;2024-02-21T00:49:50;7.40;99.90
10083;DHT22;5080;48.528;8.078;2024-02-21T00:52:17;7.40;99.90
10083;DHT22;5080;48.528;8.078;2024-02-21T00:54:44;7.40;99.90
10083;DHT22;5080;48.528;8.078;2024-02-21T00:57:10;7.40;99.90
10083;DHT22;5080;48.528;8.078;2024-02-21T00:59:38;7.40;99.90
10083;DHT22;5080;48.528;8.078;2024-02-21T01:02:07;7.40;99.90
10083;DHT22;5080;48.528;8.078;2024-02-21T01:04:34;7.50;99.90
10083;DHT22;5080;48.528;8.078;2024-02-21T01:07:02;7.50;99.90
10083;DHT22;5080;48.528;8.078;2024-02-21T01:09:28;7.50;99.90
10083;DHT22;5080;48.528;8.078;2024-02-21T01:11:55;7.50;99.90
10083;DHT22;5080;48.528;8.078;2024-02-21T01:14:22;7.40;99.90
10083;DHT22;5080;48.528;8.078;2024-02-21T01:16:50;7.40;99.90
10083;DHT22;5080;48.528;8.078;2024-02-21T01:19:17;7.40;99.90
10083;DHT22;5080;48.528;8.078;2024-02-21T01:21:43;7.40;99.90
10083;DHT22;5080;48.528;8.078;2024-02-21T01:24:10;7.40;99.90
10083;DHT22;5080;48.528;8.078;2024-02-21T01:26:37;7.50;99.90
10083;DHT22;5080;48.528;8.078;2024-02-21T01:29:03;7.50;99.90
10083;DHT22;5080;48.528;8.078;2024-02-21T01:31:30;7.50;99.90
10083;DHT22;5080;48.528;8.078;2024-02-21T01:33:58;7.60;99.90
10083;DHT22;5080;48.528;8.078;2024-02-21T01:36:25;7.50;99.90
10083;DHT22;5080;48.528;8.078;2024-02-21T01:38:52;7.50;99.90
10083;DHT22;5080;48.528;8.078;2024-02-21T01:41:18;7.60;99.90
10083;DHT22;5080;48.528;8.078;2024-02-21T01:43:45;7.60;99.90
10083;DHT22;5080;48.528;8.078;2024-02-21T01:46:12;7.50;99.90
10083;DHT22;5080;48.528;8.078;2024-02-21T01:48:38;7.50;99.90
10083;DHT22;5080;48.528;8.078;2024-02-21T01:51:07;7.50;99.90
10083;DHT22;5080;48.528;8.078;2024-02-21T01:53:36;7.70;99.90
10083;DHT22;5080;48.528;8.078;2024-02-21T01:56:05;7.50;99.90
10083;DHT22;5080;48.528;8.078;2024-02-21T01:58:33;7.50;99.90
10083;DHT22;5080;48.528;8.078;2024-02-21T02:01:02;7.50;99.90
10083;DHT22;5080;48.528;8.078;2024-02-21T02:03:29;7.50;99.90
10083;DHT22;5080;48.528;8.078;2024-02-21T02:05:56;7.50;99.90
10083;DHT22;5080;48.528;8.078;2024-02-21T02:08:24;7.40;99.90
10083;DHT22;5080;48.528;8.078;2024-02-21T02:10:52;7.50;99.90
10083;DHT22;5080;48.528;8.078;2024-02-21T02:13:18;7.50;99.90
10083;DHT22;5080;48.528;8.078;2024-02-21T02:15:46;7.50;99.90
10083;DHT22;5080;48.528;8.078;2024-02-21T02:18:14;7.40;99.90
10083;DHT22;5080;48.528;8.078;2024-02-21T02:20:41;7.50;99.90
10083;DHT22;5080;48.528;8.078;2024-02-21T02:23:11;7.40;99.90
10083;DHT22;5080;48.528;8.078;2024-02-21T02:25:40;7.40;99.90
10083;DHT22;5080;48.528;8.078;2024-02-21T02:28:07;7.40;99.90
10083;DHT22;5080;48.528;8.078;2024-02-21T02:30:34;7.40;99.90
10083;DHT22;5080;48.528;8.078;2024-02-21T02:33:03;7.50;99.90
10083;DHT22;5080;48.528;8.078;2024-02-21T02:35:29;7.50;99.90
10083;DHT22;5080;48.528;8.078;2024-02-21T02:37:56;7.40;99.90
10083;DHT22;5080;48.528;8.078;2024-02-21T02:40:23;7.40;99.90
10083;DHT22;5080;48.528;8.078;2024-02-21T02:42:51;7.50;99.90
10083;DHT22;5080;48.528;8.078;2024-02-21T02:45:20;7.50;99.90
10083;DHT22;5080;48.528;8.078;2024-02-21T02:47:47;7.50;99.90
10083;DHT22;5080;48.528;8.078;2024-02-21T02:50:14;7.60;99.90
10083;DHT22;5080;48.528;8.078;2024-02-21T02:52:41;7.60;99.90
10083;DHT22;5080;48.528;8.078;2024-02-21T02:55:08;7.60;99.90
10083;DHT22;5080;48.528;8.078;2024-02-21T02:57:35;7.60;99.90
10083;DHT22;5080;48.528;8.078;2024-02-21T03:00:03;7.60;99.90
10083;DHT22;5080;48.528;8.078;2024-02-21T03:02:32;7.50;99.90
10083;DHT22;5080;48.528;8.078;2024-02-21T03:04:58;7.50;99.90
10083;DHT22;5080;48.528;8.078;2024-02-21T03:07:25;7.50;99.90
10083;DHT22;5080;48.528;8.078;2024-02-21T03:09:52;7.40;99.90
10083;DHT22;5080;48.528;8.078;2024-02-21T03:12:20;7.40;99.90
10083;DHT22;5080;48.528;8.078;2024-02-21T03:14:53;7.40;99.90
10083;DHT22;5080;48.528;8.078;2024-02-21T03:17:21;7.20;99.90
10083;DHT22;5080;48.528;8.078;2024-02-21T03:19:48;7.20;99.90
10083;DHT22;5080;48.528;8.078;2024-02-21T03:22:15;7.10;99.90
10083;DHT22;5080;48.528;8.078;2024-02-21T03:24:42;7.10;99.90
10083;DHT22;5080;48.528;8.078;2024-02-21T03:27:09;7.10;99.90
10083;DHT22;5080;48.528;8.078;2024-02-21T03:29:36;7.10;99.90
10083;DHT22;5080;48.528;8.078;2024-02-21T03:32:03;7.10;99.90
10083;DHT22;5080;48.528;8.078;2024-02-21T03:34:31;7.10;99.90
10083;DHT22;5080;48.528;8.078;2024-02-21T03:36:58;7.00;99.90
10083;DHT22;5080;48.528;8.078;2024-02-21T03:39:25;7.10;99.90
10083;DHT22;5080;48.528;8.078;2024-02-21T03:41:52;7.10;99.90
10083;DHT22;5080;48.528;8.078;2024-02-21T03:44:19;7.10;99.90
10083;DHT22;5080;48.528;8.078;2024-02-21T03:46:45;7.10;99.90
10083;DHT22;5080;48.528;8.078;2024-02-21T03:49:12;7.10;99.90
10083;DHT22;5080;48.528;8.078;2024-02-21T03:51:40;7.10;99.90
10083;DHT22;5080;48.528;8.078;2024-02-21T03:54:07;7.10;99.90
10083;DHT22;5080;48.528;8.078;2024-02-21T03:56:37;7.10;99.90
10083;DHT22;5080;48.528;8.078;2024-02-21T03:59:05;7.20;99.90
10083;DHT22;5080;48.528;8.078;2024-02-21T04:01:31;7.20;99.90
10083;DHT22;5080;48.528;8.078;2024-02-21T04:03:58;7.20;99.90
10083;DHT22;5080;48.528;8.078;2024-02-21T04:06:25;7.20;99.90
10083;DHT22;5080;48.528;8.078;2024-02-21T04:08:53;7.20;99.90
10083;DHT22;5080;48.528;8.078;2024-02-21T04:11:20;7.20;99.90
10083;DHT22;5080;48.528;8.078;2024-02-21T04:13:47;7.20;99.90
10083;DHT22;5080;48.528;8.078;2024-02-21T04:16:15;7.20;99.90
10083;DHT22;5080;48.528;8.078;2024-02-21T04:18:42;7.20;99.90
10083;DHT22;5080;48.528;8.078;2024-02-21T04:21:09;7.20;99.90
10083;DHT22;5080;48.528;8.078;2024-02-21T04:23:36;7.20;99.90
10083;DHT22;5080;48.528;8.078;2024-02-21T04:26:04;7.20;99.90
10083;DHT22;5080;48.528;8.078;2024-02-21T04:28:31;7.10;99.90
10083;DHT22;5080;48.528;8.078;2024-02-21T04:30:57;7.10;99.90
10083;DHT22;5080;48.528;8.078;2024-02-21T04:33:24;7.00;99.90
10083;DHT22;5080;48.528;8.078;2024-02-21T04:35:51;7.00;99.90
10083;DHT22;5080;48.528;8.078;2024-02-21T04:38:20;6.90;99.90
10083;DHT22;5080;48.528;8.078;2024-02-21T04:40:46;6.90;99.90
10083;DHT22;5080;48.528;8.078;2024-02-21T04:43:15;6.80;99.90
10083;DHT22;5080;48.528;8.078;2024-02-21T04:45:42;6.80;99.90
10083;DHT22;5080;48.528;8.078;2024-02-21T04:48:08;6.70;99.90
10083;DHT22;5080;48.528;8.078;2024-02-21T04:50:35;6.60;99.90
10083;DHT22;5080;48.528;8.078;2024-02-21T04:53:02;6.60;99.90
10083;DHT22;5080;48.528;8.078;2024-02-21T04:55:29;6.60;99.90
10083;DHT22;5080;48.528;8.078;2024-02-21T04:57:56;6.60;99.90
10083;DHT22;5080;48.528;8.078;2024-02-21T05:00:24;6.50;99.90
10083;DHT22;5080;48.528;8.078;2024-02-21T05:02:50;6.40;99.90
10083;DHT22;5080;48.528;8.078;2024-02-21T05:05:17;6.40;99.90
10083;DHT22;5080;48.528;8.078;2024-02-21T05:07:44;6.40;99.90
10083;DHT22;5080;48.528;8.078;2024-02-21T05:10:11;6.30;99.90
10083;DHT22;5080;48.528;8.078;2024-02-21T05:12:37;6.30;99.90
10083;DHT22;5080;48.528;8.078;2024-02-21T05:15:05;6.20;99.90
10083;DHT22;5080;48.528;8.078;2024-02-21T05:17:34;6.30;99.90
10083;DHT22;5080;48.528;8.078;2024-02-21T05:20:00;6.30;99.90
10083;DHT22;5080;48.528;8.078;2024-02-21T05:22:27;6.20;99.90
10083;DHT22;5080;48.528;8.078;2024-02-21T05:24:54;6.20;99.90
10083;DHT22;5080;48.528;8.078;2024-02-21T05:27:21;6.10;99.90
10083;DHT22;5080;48.528;8.078;2024-02-21T05:29:47;6.10;99.90
10083;DHT22;5080;48.528;8.078;2024-02-21T05:32:14;6.00;99.90
10083;DHT22;5080;48.528;8.078;2024-02-21T05:34:43;5.90;99.90
10083;DHT22;5080;48.528;8.078;2024-02-21T05:37:09;5.90;99.90
10083;DHT22;5080;48.528;8.078;2024-02-21T05:39:36;5.80;99.90
10083;DHT22;5080;48.528;8.078;2024-02-21T05:42:03;5.80;99.90
10083;DHT22;5080;48.528;8.078;2024-02-21T05:44:30;5.90;99.90
10083;DHT22;5080;48.528;8.078;2024-02-21T05:46:56;5.90;99.90
10083;DHT22;5080;48.528;8.078;2024-02-21T05:49:23;5.90;99.90
10083;DHT22;5080;48.528;8.078;2024-02-21T05:51:51;5.90;99.90
10083;DHT22;5080;48.528;8.078;2024-02-21T05:54:19;5.90;99.90
10083;DHT22;5080;48.528;8.078;2024-02-21T05:56:46;5.90;99.90
10083;DHT22;5080;48.528;8.078;2024-02-21T05:59:12;6.00;99.90
10083;DHT22;5080;48.528;8.078;2024-02-21T06:01:39;6.00;99.90
10083;DHT22;5080;48.528;8.078;2024-02-21T06:04:06;6.00;99.90
10083;DHT22;5080;48.528;8.078;2024-02-21T06:06:32;6.00;99.90
10083;DHT22;5080;48.528;8.078;2024-02-21T06:09:01;6.00;99.90
10083;DHT22;5080;48.528;8.078;2024-02-21T06:11:28;6.00;99.90
10083;DHT22;5080;48.528;8.078;2024-02-21T06:13:55;6.00;99.90
10083;DHT22;5080;48.528;8.078;2024-02-21T06:16:22;6.00;99.90
10083;DHT22;5080;48.528;8.078;2024-02-21T06:18:48;6.00;99.90
10083;DHT22;5080;48.528;8.078;2024-02-21T06:21:15;6.00;99.90
10083;DHT22;5080;48.528;8.078;2024-02-21T06:23:43;6.00;99.90
10083;DHT22;5080;48.528;8.078;2024-02-21T06:26:11;6.10;99.90
10083;DHT22;5080;48.528;8.078;2024-02-21T06:28:38;6.10;99.90
10083;DHT22;5080;48.528;8.078;2024-02-21T06:31:04;6.10;99.90
10083;DHT22;5080;48.528;8.078;2024-02-21T06:33:31;6.10;99.90
10083;DHT22;5080;48.528;8.078;2024-02-21T06:35:58;6.10;99.90
10083;DHT22;5080;48.528;8.078;2024-02-21T06:38:24;6.00;99.90
10083;DHT22;5080;48.528;8.078;2024-02-21T06:40:51;6.00;99.90
10083;DHT22;5080;48.528;8.078;2024-02-21T06:43:21;6.00;99.90
10083;DHT22;5080;48.528;8.078;2024-02-21T06:45:48;6.00;99.90
10083;DHT22;5080;48.528;8.078;2024-02-21T06:48:16;6.00;99.90
10083;DHT22;5080;48.528;8.078;2024-02-21T06:50:43;6.00;99.90
10083;DHT22;5080;48.528;8.078;2024-02-21T06:53:10;6.00;99.90
10083;DHT22;5080;48.528;8.078;2024-02-21T06:55:37;6.00;99.90
10083;DHT22;5080;48.528;8.078;2024-02-21T06:58:04;6.00;99.90
10083;DHT22;5080;48.528;8.078;2024-02-21T07:00:32;6.10;99.90
10083;DHT22;5080;48.528;8.078;2024-02-21T07:02:58;6.00;99.90
10083;DHT22;5080;48.528;8.078;2024-02-21T07:05:25;6.00;99.90
10083;DHT22;5080;48.528;8.078;2024-02-21T07:07:52;6.10;99.90
10083;DHT22;5080;48.528;8.078;2024-02-21T07:10:18;6.10;99.90
10083;DHT22;5080;48.528;8.078;2024-02-21T07:12:45;6.20;99.90
10083;DHT22;5080;48.528;8.078;2024-02-21T07:15:12;6.20;99.90
10083;DHT22;5080;48.528;8.078;2024-02-21T07:17:40;6.30;99.90
10083;DHT22;5080;48.528;8.078;2024-02-21T07:20:08;6.40;99.90
10083;DHT22;5080;48.528;8.078;2024-02-21T07:22:34;6.40;99.90
10083;DHT22;5080;48.528;8.078;2024-02-21T07:25:01;6.40;99.90
10083;DHT22;5080;48.528;8.078;2024-02-21T07:27:28;6.50;99.90
10083;DHT22;5080;48.528;8.078;2024-02-21T07:29:56;6.50;99.90
10083;DHT22;5080;48.528;8.078;2024-02-21T07:32:23;6.50;99.90
10083;DHT22;5080;48.528;8.078;2024-02-21T07:34:51;6.50;99.90
10083;DHT22;5080;48.528;8.078;2024-02-21T07:37:18;6.50;99.90
10083;DHT22;5080;48.528;8.078;2024-02-21T07:39:44;6.50;99.90
10083;DHT22;5080;48.528;8.078;2024-02-21T07:42:11;6.60;99.90
10083;DHT22;5080;48.528;8.078;2024-02-21T07:44:38;6.60;99.90
10083;DHT22;5080;48.528;8.078;2024-02-21T07:47:05;6.60;99.90
10083;DHT22;5080;48.528;8.078;2024-02-21T07:49:32;6.80;99.90
10083;DHT22;5080;48.528;8.078;2024-02-21T07:52:01;6.80;99.90
10083;DHT22;5080;48.528;8.078;2024-02-21T07:54:28;6.90;99.90
10083;DHT22;5080;48.528;8.078;2024-02-21T07:56:55;6.90;99.90
10083;DHT22;5080;48.528;8.078;2024-02-21T07:59:22;7.00;99.90
10083;DHT22;5080;48.528;8.078;2024-02-21T08:01:48;7.10;99.90
10083;DHT22;5080;48.528;8.078;2024-02-21T08:04:15;7.10;99.90
10083;DHT22;5080;48.528;8.078;2024-02-21T08:06:42;7.20;99.90
10083;DHT22;5080;48.528;8.078;2024-02-21T08:09:11;7.20;99.90
10083;DHT22;5080;48.528;8.078;2024-02-21T08:11:38;7.20;99.90
10083;DHT22;5080;48.528;8.078;2024-02-21T08:14:05;7.30;99.90
10083;DHT22;5080;48.528;8.078;2024-02-21T08:16:32;7.40;99.90
10083;DHT22;5080;48.528;8.078;2024-02-21T08:18:59;7.40;99.90
10083;DHT22;5080;48.528;8.078;2024-02-21T08:21:28;7.40;99.90
10083;DHT22;5080;48.528;8.078;2024-02-21T08:23:55;7.50;99.90
10083;DHT22;5080;48.528;8.078;2024-02-21T08:26:23;7.60;99.90
10083;DHT22;5080;48.528;8.078;2024-02-21T08:28:53;7.70;99.90
10083;DHT22;5080;48.528;8.078;2024-02-21T08:31:20;7.70;99.90
10083;DHT22;5080;48.528;8.078;2024-02-21T08:33:48;7.90;99.90
10083;DHT22;5080;48.528;8.078;2024-02-21T08:36:17;7.90;99.90
10083;DHT22;5080;48.528;8.078;2024-02-21T08:38:44;8.00;99.90
10083;DHT22;5080;48.528;8.078;2024-02-21T08:41:11;8.10;99.90
10083;DHT22;5080;48.528;8.078;2024-02-21T08:43:40;8.30;99.90
10083;DHT22;5080;48.528;8.078;2024-02-21T08:46:06;8.30;99.90
10083;DHT22;5080;48.528;8.078;2024-02-21T08:48:33;8.40;99.90
10083;DHT22;5080;48.528;8.078;2024-02-21T08:51:00;8.50;99.90
10083;DHT22;5080;48.528;8.078;2024-02-21T08:53:27;8.70;99.90
10083;DHT22;5080;48.528;8.078;2024-02-21T08:55:54;8.80;99.90
10083;DHT22;5080;48.528;8.078;2024-02-21T08:58:21;8.90;99.90
10083;DHT22;5080;48.528;8.078;2024-02-21T09:00:50;9.00;99.90
10083;DHT22;5080;48.528;8.078;2024-02-21T09:03:17;9.10;99.90
10083;DHT22;5080;48.528;8.078;2024-02-21T09:05:45;9.20;99.90
10083;DHT22;5080;48.528;8.078;2024-02-21T09:08:12;9.20;99.90
10083;DHT22;5080;48.528;8.078;2024-02-21T09:10:39;9.30;99.90
10083;DHT22;5080;48.528;8.078;2024-02-21T09:13:06;9.40;99.90
10083;DHT22;5080;48.528;8.078;2024-02-21T09:15:34;9.50;99.90
10083;DHT22;5080;48.528;8.078;2024-02-21T09:18:02;9.50;99.90
10083;DHT22;5080;48.528;8.078;2024-02-21T09:20:29;9.60;99.90
10083;DHT22;5080;48.528;8.078;2024-02-21T09:22:56;9.70;99.90
10083;DHT22;5080;48.528;8.078;2024-02-21T09:25:23;9.80;99.90
10083;DHT22;5080;48.528;8.078;2024-02-21T09:27:50;9.90;99.90
10083;DHT22;5080;48.528;8.078;2024-02-21T09:30:17;10.00;99.90
10083;DHT22;5080;48.528;8.078;2024-02-21T09:32:44;10.20;99.90
10083;DHT22;5080;48.528;8.078;2024-02-21T09:35:12;10.30;99.90
10083;DHT22;5080;48.528;8.078;2024-02-21T09:37:39;10.60;99.90
10083;DHT22;5080;48.528;8.078;2024-02-21T09:40:07;10.70;99.90
10083;DHT22;5080;48.528;8.078;2024-02-21T09:42:37;10.90;99.90
10083;DHT22;5080;48.528;8.078;2024-02-21T09:45:08;11.00;99.90
10083;DHT22;5080;48.528;8.078;2024-02-21T09:47:47;11.20;99.90
10083;DHT22;5080;48.528;8.078;2024-02-21T09:50:19;11.30;99.90
10083;DHT22;5080;48.528;8.078;2024-02-21T09:52:48;11.40;99.90
10083;DHT22;5080;48.528;8.078;2024-02-21T09:55:16;11.50;99.90
10083;DHT22;5080;48.528;8.078;2024-02-21T09:57:44;11.60;99.90
10083;DHT22;5080;48.528;8.078;2024-02-21T10:00:12;11.70;99.90
10083;DHT22;5080;48.528;8.078;2024-02-21T10:02:47;11.70;99.90
10083;DHT22;5080;48.528;8.078;2024-02-21T10:05:14;11.80;99.90
10083;DHT22;5080;48.528;8.078;2024-02-21T10:07:42;11.90;99.90
10083;DHT22;5080;48.528;8.078;2024-02-21T10:10:10;12.00;99.90
10083;DHT22;5080;48.528;8.078;2024-02-21T10:12:36;12.20;99.90
10083;DHT22;5080;48.528;8.078;2024-02-21T10:15:04;12.30;99.90
10083;DHT22;5080;48.528;8.078;2024-02-21T10:17:32;12.40;99.90
10083;DHT22;5080;48.528;8.078;2024-02-21T10:20:07;12.50;99.90
10083;DHT22;5080;48.528;8.078;2024-02-21T10:22:34;12.50;99.90
10083;DHT22;5080;48.528;8.078;2024-02-21T10:25:08;12.60;99.90
10083;DHT22;5080;48.528;8.078;2024-02-21T10:27:36;12.60;99.90
10083;DHT22;5080;48.528;8.078;2024-02-21T10:30:04;12.70;99.90
10083;DHT22;5080;48.528;8.078;2024-02-21T10:32:31;12.80;99.90
10083;DHT22;5080;48.528;8.078;2024-02-21T10:35:01;12.80;99.90
10083;DHT22;5080;48.528;8.078;2024-02-21T10:37:30;12.80;99.90
10083;DHT22;5080;48.528;8.078;2024-02-21T10:39:56;12.90;99.90
10083;DHT22;5080;48.528;8.078;2024-02-21T10:42:27;13.00;99.90
10083;DHT22;5080;48.528;8.078;2024-02-21T10:45:00;13.00;99.90
10083;DHT22;5080;48.528;8.078;2024-02-21T10:47:31;13.10;99.90
10083;DHT22;5080;48.528;8.078;2024-02-21T10:50:03;13.10;99.90
10083;DHT22;5080;48.528;8.078;2024-02-21T10:52:41;13.20;99.90
10083;DHT22;5080;48.528;8.078;2024-02-21T10:55:16;13.20;99.90
10083;DHT22;5080;48.528;8.078;2024-02-21T10:57:48;13.40;99.90
10083;DHT22;5080;48.528;8.078;2024-02-21T11:00:17;13.40;99.90
10083;DHT22;5080;48.528;8.078;2024-02-21T11:02:44;13.50;99.90
10083;DHT22;5080;48.528;8.078;2024-02-21T11:05:12;13.60;99.90
10083;DHT22;5080;48.528;8.078;2024-02-21T11:07:40;13.60;99.90
10083;DHT22;5080;48.528;8.078;2024-02-21T11:10:20;13.60;99.90
10083;DHT22;5080;48.528;8.078;2024-02-21T11:12:52;13.70;99.90
10083;DHT22;5080;48.528;8.078;2024-02-21T11:15:19;13.70;99.90
10083;DHT22;5080;48.528;8.078;2024-02-21T11:17:53;13.70;99.90
10083;DHT22;5080;48.528;8.078;2024-02-21T11:20:21;13.70;99.90
10083;DHT22;5080;48.528;8.078;2024-02-21T11:22:58;13.80;99.90
10083;DHT22;5080;48.528;8.078;2024-02-21T11:25:25;13.80;99.90
10083;DHT22;5080;48.528;8.078;2024-02-21T11:28:00;13.90;99.90
10083;DHT22;5080;48.528;8.078;2024-02-21T11:30:27;13.90;99.90
10083;DHT22;5080;48.528;8.078;2024-02-21T11:33:00;13.90;99.90
10083;DHT22;5080;48.528;8.078;2024-02-21T11:35:31;14.00;99.90
10083;DHT22;5080;48.528;8.078;2024-02-21T11:38:08;14.00;99.90
10083;DHT22;5080;48.528;8.078;2024-02-21T11:40:37;14.10;99.90
10083;DHT22;5080;48.528;8.078;2024-02-21T11:43:06;14.10;99.90
10083;DHT22;5080;48.528;8.078;2024-02-21T11:45:33;14.10;99.90
10083;DHT22;5080;48.528;8.078;2024-02-21T11:47:59;14.10;99.90
10083;DHT22;5080;48.528;8.078;2024-02-21T11:50:29;14.00;99.90
10083;DHT22;5080;48.528;8.078;2024-02-21T11:52:56;14.00;99.90
10083;DHT22;5080;48.528;8.078;2024-02-21T11:55:22;14.20;99.90
10083;DHT22;5080;48.528;8.078;2024-02-21T11:57:49;14.20;99.90
10083;DHT22;5080;48.528;8.078;2024-02-21T12:00:19;14.20;99.90
10083;DHT22;5080;48.528;8.078;2024-02-21T12:02:46;14.30;99.90
10083;DHT22;5080;48.528;8.078;2024-02-21T12:05:14;14.30;99.90
10083;DHT22;5080;48.528;8.078;2024-02-21T12:07:41;14.30;99.90
10083;DHT22;5080;48.528;8.078;2024-02-21T12:10:08;14.30;99.90
10083;DHT22;5080;48.528;8.078;2024-02-21T12:12:36;14.30;99.90
10083;DHT22;5080;48.528;8.078;2024-02-21T12:15:04;14.30;99.90
10083;DHT22;5080;48.528;8.078;2024-02-21T12:17:32;14.40;99.90
10083;DHT22;5080;48.528;8.078;2024-02-21T12:20:00;14.30;99.90
10083;DHT22;5080;48.528;8.078;2024-02-21T12:22:29;14.30;99.90
10083;DHT22;5080;48.528;8.078;2024-02-21T12:24:57;14.30;99.90
10083;DHT22;5080;48.528;8.078;2024-02-21T12:27:25;14.40;99.90
10083;DHT22;5080;48.528;8.078;2024-02-21T12:29:52;14.40;99.90
10083;DHT22;5080;48.528;8.078;2024-02-21T12:32:19;14.40;99.90
10083;DHT22;5080;48.528;8.078;2024-02-21T12:34:47;14.50;99.90
10083;DHT22;5080;48.528;8.078;2024-02-21T12:37:13;14.60;99.90
10083;DHT22;5080;48.528;8.078;2024-02-21T12:39:41;14.60;99.90
10083;DHT22;5080;48.528;8.078;2024-02-21T12:42:08;14.70;99.90
10083;DHT22;5080;48.528;8.078;2024-02-21T12:44:37;14.60;99.90
10083;DHT22;5080;48.528;8.078;2024-02-21T12:47:03;14.40;99.90
10083;DHT22;5080;48.528;8.078;2024-02-21T12:49:30;14.30;99.90
10083;DHT22;5080;48.528;8.078;2024-02-21T12:51:59;14.10;99.90
10083;DHT22;5080;48.528;8.078;2024-02-21T12:54:26;14.10;99.90
10083;DHT22;5080;48.528;8.078;2024-02-21T12:56:52;14.00;99.90
10083;DHT22;5080;48.528;8.078;2024-02-21T12:59:19;14.00;99.90
10083;DHT22;5080;48.528;8.078;2024-02-21T13:01:46;14.10;99.90
10083;DHT22;5080;48.528;8.078;2024-02-21T13:04:13;14.10;99.90
10083;DHT22;5080;48.528;8.078;2024-02-21T13:06:39;14.10;99.90
10083;DHT22;5080;48.528;8.078;2024-02-21T13:09:07;14.00;99.90
10083;DHT22;5080;48.528;8.078;2024-02-21T13:11:36;14.00;99.90
10083;DHT22;5080;48.528;8.078;2024-02-21T13:14:03;14.00;99.90
10083;DHT22;5080;48.528;8.078;2024-02-21T13:16:30;14.00;99.90
10083;DHT22;5080;48.528;8.078;2024-02-21T13:18:56;13.90;99.90
10083;DHT22;5080;48.528;8.078;2024-02-21T13:21:23;13.90;99.90
10083;DHT22;5080;48.528;8.078;2024-02-21T13:23:50;13.80;99.90
10083;DHT22;5080;48.528;8.078;2024-02-21T13:26:18;13.80;99.90
10083;DHT22;5080;48.528;8.078;2024-02-21T13:28:45;13.80;99.90
10083;DHT22;5080;48.528;8.078;2024-02-21T13:31:13;13.80;99.90
10083;DHT22;5080;48.528;8.078;2024-02-21T13:33:42;13.80;99.90
10083;DHT22;5080;48.528;8.078;2024-02-21T13:36:09;13.80;99.90
10083;DHT22;5080;48.528;8.078;2024-02-21T13:38:36;13.90;99.90
10083;DHT22;5080;48.528;8.078;2024-02-21T13:41:04;13.90;99.90
10083;DHT22;5080;48.528;8.078;2024-02-21T13:43:32;14.10;99.90
10083;DHT22;5080;48.528;8.078;2024-02-21T13:46:00;14.10;99.90
10083;DHT22;5080;48.528;8.078;2024-02-21T13:48:28;14.10;99.90
10083;DHT22;5080;48.528;8.078;2024-02-21T13:50:55;14.00;99.90
10083;DHT22;5080;48.528;8.078;2024-02-21T13:53:22;14.00;99.90
10083;DHT22;5080;48.528;8.078;2024-02-21T13:55:49;14.10;99.90
10083;DHT22;5080;48.528;8.078;2024-02-21T13:58:16;14.00;99.90
10083;DHT22;5080;48.528;8.078;2024-02-21T14:00:44;14.00;99.90
10083;DHT22;5080;48.528;8.078;2024-02-21T14:03:11;14.10;99.90
10083;DHT22;5080;48.528;8.078;2024-02-21T14:05:38;14.10;99.90
10083;DHT22;5080;48.528;8.078;2024-02-21T14:08:06;14.10;99.90
10083;DHT22;5080;48.528;8.078;2024-02-21T14:10:33;14.20;99.90
10083;DHT22;5080;48.528;8.078;2024-02-21T14:13:00;14.20;99.90
10083;DHT22;5080;48.528;8.078;2024-02-21T14:15:26;14.30;99.90
10083;DHT22;5080;48.528;8.078;2024-02-21T14:17:55;14.20;99.90
10083;DHT22;5080;48.528;8.078;2024-02-21T14:20:21;14.20;99.90
10083;DHT22;5080;48.528;8.078;2024-02-21T14:22:48;14.30;99.90
10083;DHT22;5080;48.528;8.078;2024-02-21T14:25:15;14.30;99.90
10083;DHT22;5080;48.528;8.078;2024-02-21T14:27:42;14.40;99.90
10083;DHT22;5080;48.528;8.078;2024-02-21T14:30:09;14.40;99.90
10083;DHT22;5080;48.528;8.078;2024-02-21T14:32:36;14.40;99.90
10083;DHT22;5080;48.528;8.078;2024-02-21T14:35:05;14.30;99.90
10083;DHT22;5080;48.528;8.078;2024-02-21T14:37:32;14.30;99.90
10083;DHT22;5080;48.528;8.078;2024-02-21T14:39:59;14.20;99.90
10083;DHT22;5080;48.528;8.078;2024-02-21T14:42:27;14.20;99.90
10083;DHT22;5080;48.528;8.078;2024-02-21T14:44:53;14.30;99.90
10083;DHT22;5080;48.528;8.078;2024-02-21T14:47:29;14.30;99.90
10083;DHT22;5080;48.528;8.078;2024-02-21T14:49:56;14.30;99.90
10083;DHT22;5080;48.528;8.078;2024-02-21T14:52:24;14.30;99.90
10083;DHT22;5080;48.528;8.078;2024-02-21T14:54:52;14.40;99.90
10083;DHT22;5080;48.528;8.078;2024-02-21T14:57:19;14.30;99.90
10083;DHT22;5080;48.528;8.078;2024-02-21T14:59:46;14.30;99.90
10083;DHT22;5080;48.528;8.078;2024-02-21T15:02:15;14.30;99.90
10083;DHT22;5080;48.528;8.078;2024-02-21T15:04:41;14.40;99.90
10083;DHT22;5080;48.528;8.078;2024-02-21T15:07:08;14.30;99.90
10083;DHT22;5080;48.528;8.078;2024-02-21T15:09:36;14.40;99.90
10083;DHT22;5080;48.528;8.078;2024-02-21T15:12:03;14.40;99.90
10083;DHT22;5080;48.528;8.078;2024-02-21T15:14:31;14.30;99.90
10083;DHT22;5080;48.528;8.078;2024-02-21T15:16:58;14.40;99.90
10083;DHT22;5080;48.528;8.078;2024-02-21T15:19:25;14.30;99.90
10083;DHT22;5080;48.528;8.078;2024-02-21T15:21:52;14.30;99.90
10083;DHT22;5080;48.528;8.078;2024-02-21T15:24:19;14.30;99.90
10083;DHT22;5080;48.528;8.078;2024-02-21T15:26:47;14.20;99.90
10083;DHT22;5080;48.528;8.078;2024-02-21T15:29:14;14.20;99.90
10083;DHT22;5080;48.528;8.078;2024-02-21T15:31:40;14.10;99.90
10083;DHT22;5080;48.528;8.078;2024-02-21T15:34:13;14.10;99.90
10083;DHT22;5080;48.528;8.078;2024-02-21T15:36:41;14.10;99.90
10083;DHT22;5080;48.528;8.078;2024-02-21T15:39:08;14.00;99.90
10083;DHT22;5080;48.528;8.078;2024-02-21T15:41:36;13.90;99.90
10083;DHT22;5080;48.528;8.078;2024-02-21T15:44:04;13.90;99.90
10083;DHT22;5080;48.528;8.078;2024-02-21T15:46:31;13.90;99.90
10083;DHT22;5080;48.528;8.078;2024-02-21T15:48:59;13.90;99.90
10083;DHT22;5080;48.528;8.078;2024-02-21T15:51:26;13.80;99.90
10083;DHT22;5080;48.528;8.078;2024-02-21T15:53:53;13.80;99.90
10083;DHT22;5080;48.528;8.078;2024-02-21T15:56:19;13.80;99.90